Sea Crest — VG3583 — position and weather

sailwx.info

Track history (hours):
 
Tides and Currents Weather Stations Pressure Air Temp Water Temp Dewpoint Dewpoint Depression Visibility Wind Speed Wind Dir Waves Ship Positions

Sea Crest

Last reported at 2017-Oct-20 15:41 UTC. Time now 2017-Dec-18 07:17 UTC.
Position N 49°17' W 123°06'.
Warning: this ship's position is 58 days out of date.

Length 26 m; draft 3 m.

Type: Fishing. MMSI: 316005669.

Date/timePositionNaut miles runAvg speedWind from/ knotsBaromVisibWave heightAir tempDewpointWater temp
2017-Oct-20 15:41N 49°17' W 123°06'0 0.0
2017-Oct-20 15:31N 49°17' W 123°06'0 0.0
2017-Oct-19 17:50N 49°17' W 123°06'0 0.0
2017-Oct-19 17:30N 49°17' W 123°06'0 0.0
2017-Oct-19 17:00N 49°17' W 123°06'0 0.0
2017-Oct-19 16:31N 49°17' W 123°06'0 0.0
2017-Oct-19 16:00N 49°17' W 123°06'0 0.0
2017-Oct-17 19:48N 49°17' W 123°06'0 0.0
2017-Oct-17 19:30N 49°17' W 123°06'0 0.0
2017-Oct-17 19:01N 49°17' W 123°06'0 0.0
2017-Oct-17 18:30N 49°17' W 123°06'0 0.0
2017-Oct-17 18:01N 49°17' W 123°06'0 0.0
2017-Oct-17 17:31N 49°17' W 123°06'0 0.0
2017-Oct-17 17:00N 49°17' W 123°06'0 0.0
2017-Oct-17 16:30N 49°17' W 123°06'0 0.0
2017-Oct-17 16:00N 49°17' W 123°06'  
2017-Oct-11 17:57N 49°17' W 123°06'0 0.1
2017-Oct-11 17:30N 49°17' W 123°06'0 0.0
2017-Oct-11 17:00N 49°17' W 123°06'0 0.0
2017-Oct-11 00:00N 49°17' W 123°06'3 6.9
2017-Oct-10 23:30N 49°19' W 123°10'5 9.3
2017-Oct-10 23:00N 49°20' W 123°17'5 9.3
2017-Oct-10 22:30N 49°19' W 123°24'5 9.5
2017-Oct-10 22:00N 49°19' W 123°32'5 9.2
2017-Oct-10 21:30N 49°19' W 123°39'5 9.1
2017-Oct-10 21:00N 49°19' W 123°46'4 7.2
2017-Oct-10 20:30N 49°19' W 123°51'3 4.9
2017-Oct-10 19:59N 49°18' W 123°55'3 7.3
2017-Oct-10 19:30N 49°14' W 123°56'2 3.8
2017-Oct-10 19:00N 49°13' W 123°57'0 0.0
2017-Oct-10 18:28N 49°13' W 123°57'0 0.0
2017-Oct-10 17:53N 49°13' W 123°57'0 0.0
2017-Oct-10 17:29N 49°13' W 123°57'0 0.0
2017-Oct-10 17:00N 49°13' W 123°57'0 0.0
2017-Oct-10 16:30N 49°13' W 123°57'0 0.0
2017-Oct-10 16:00N 49°13' W 123°57'  
Track history (hours):
 
Tides and Currents Weather Stations Pressure Air Temp Water Temp Dewpoint Dewpoint Depression Visibility Wind Speed Wind Dir Waves Ship Positions

Sea Crest

Last reported at 2017-Oct-20 15:41 UTC. Time now 2017-Dec-18 07:17 UTC.
Position N 49°17' W 123°06'.
Warning: this ship's position is 58 days out of date.

Length 26 m; draft 3 m.

Type: Fishing. MMSI: 316005669.

Date/timePositionNaut miles runAvg speedWind from/ knotsBaromVisibWave heightAir tempDewpointWater temp
2017-Oct-20 15:41N 49°17' W 123°06'0 0.0
2017-Oct-20 15:31N 49°17' W 123°06'0 0.0
2017-Oct-19 17:50N 49°17' W 123°06'0 0.0
2017-Oct-19 17:30N 49°17' W 123°06'0 0.0
2017-Oct-19 17:00N 49°17' W 123°06'0 0.0
2017-Oct-19 16:31N 49°17' W 123°06'0 0.0
2017-Oct-19 16:00N 49°17' W 123°06'0 0.0
2017-Oct-17 19:48N 49°17' W 123°06'0 0.0
2017-Oct-17 19:30N 49°17' W 123°06'0 0.0
2017-Oct-17 19:01N 49°17' W 123°06'0 0.0
2017-Oct-17 18:30N 49°17' W 123°06'0 0.0
2017-Oct-17 18:01N 49°17' W 123°06'0 0.0
2017-Oct-17 17:31N 49°17' W 123°06'0 0.0
2017-Oct-17 17:00N 49°17' W 123°06'0 0.0
2017-Oct-17 16:30N 49°17' W 123°06'0 0.0
2017-Oct-17 16:00N 49°17' W 123°06'  
2017-Oct-11 17:57N 49°17' W 123°06'0 0.1
2017-Oct-11 17:30N 49°17' W 123°06'0 0.0
2017-Oct-11 17:00N 49°17' W 123°06'0 0.0
2017-Oct-11 00:00N 49°17' W 123°06'3 6.9
2017-Oct-10 23:30N 49°19' W 123°10'5 9.3
2017-Oct-10 23:00N 49°20' W 123°17'5 9.3
2017-Oct-10 22:30N 49°19' W 123°24'5 9.5
2017-Oct-10 22:00N 49°19' W 123°32'5 9.2
2017-Oct-10 21:30N 49°19' W 123°39'5 9.1
2017-Oct-10 21:00N 49°19' W 123°46'4 7.2
2017-Oct-10 20:30N 49°19' W 123°51'3 4.9
2017-Oct-10 19:59N 49°18' W 123°55'3 7.3
2017-Oct-10 19:30N 49°14' W 123°56'2 3.8
2017-Oct-10 19:00N 49°13' W 123°57'0 0.0
2017-Oct-10 18:28N 49°13' W 123°57'0 0.0
2017-Oct-10 17:53N 49°13' W 123°57'0 0.0
2017-Oct-10 17:29N 49°13' W 123°57'0 0.0
2017-Oct-10 17:00N 49°13' W 123°57'0 0.0
2017-Oct-10 16:30N 49°13' W 123°57'0 0.0
2017-Oct-10 16:00N 49°13' W 123°57'  

Dump ship's entire track history